Time;durP1;ratioP1;P1;durP2;ratioP2;P2;SDS_P1;SDS_P2;PMS_P1;PMS_P2;Temp;Humidity;BMP_temperature;BMP_pressure;BME280_temperature;BME280_humidity;BME280_pressure;Samples;Min_cycle;Max_cycle;Signal;HPM_P1;HPM_P2
2021/11/26 00:01:23;;;;;;;21.82;13.32;;;;;;;1.46;100.00;99056.20;1681346;83;20912;-65
2021/11/26 00:03:52;;;;;;;32.08;15.25;;;;;;;1.45;100.00;99059.45;1694514;83;20919;-65
2021/11/26 00:06:26;;;;;;;29.35;16.17;;;;;;;1.44;100.00;99062.42;1689592;83;20940;-65
2021/11/26 00:08:54;;;;;;;25.70;15.50;;;;;;;1.42;100.00;99064.05;1694875;84;21174;-65
2021/11/26 00:11:25;;;;;;;24.25;13.80;;;;;;;1.42;100.00;99050.52;1694672;84;20967;-65
2021/11/26 00:14:07;;;;;;;25.00;14.47;;;;;;;1.40;100.00;99028.88;1685300;83;21503;-65
2021/11/26 00:16:36;;;;;;;20.62;12.50;;;;;;;1.38;100.00;99033.74;1695408;84;21807;-66
2021/11/26 00:19:09;;;;;;;21.80;12.68;;;;;;;1.30;100.00;99030.48;1694558;83;20907;-65
2021/11/26 00:21:47;;;;;;;21.23;12.07;;;;;;;1.26;100.00;99023.17;1690769;83;21081;-65
2021/11/26 00:24:12;;;;;;;22.93;13.85;;;;;;;1.22;100.00;99020.19;1692083;83;20975;-66
2021/11/26 00:26:41;;;;;;;27.60;13.25;;;;;;;1.17;100.00;99018.83;1685538;83;21558;-65
2021/11/26 00:29:10;;;;;;;28.95;14.45;;;;;;;1.11;100.00;99002.34;1693099;83;20986;-65
2021/11/26 00:31:41;;;;;;;25.50;12.98;;;;;;;1.07;100.00;98996.39;1697447;83;21022;-65
2021/11/26 00:34:10;;;;;;;27.50;14.33;;;;;;;1.04;100.00;98983.41;1687253;83;21189;-65
2021/11/26 00:36:40;;;;;;;24.37;13.00;;;;;;;1.00;100.00;98993.94;1686868;84;20884;-65
2021/11/26 00:39:08;;;;;;;23.83;13.73;;;;;;;0.97;100.00;98989.88;1667945;84;20999;-65
2021/11/26 00:41:38;;;;;;;28.25;14.63;;;;;;;0.95;100.00;98989.88;1692529;83;21046;-65
2021/11/26 00:44:10;;;;;;;23.40;14.15;;;;;;;0.94;100.00;99000.41;1694622;84;20955;-65
2021/11/26 00:46:43;;;;;;;22.40;13.50;;;;;;;0.92;100.00;99006.62;1668916;84;20954;-65
2021/11/26 00:49:13;;;;;;;26.55;14.23;;;;;;;0.90;100.00;98997.42;1673035;84;21546;-67
2021/11/26 00:51:44;;;;;;;22.98;13.22;;;;;;;0.90;100.00;99000.13;1693820;83;20975;-64
2021/11/26 00:54:14;;;;;;;23.07;13.18;;;;;;;0.87;100.00;98991.20;1692765;83;21566;-66
2021/11/26 00:56:46;;;;;;;22.42;13.80;;;;;;;0.85;100.00;98987.95;1694631;84;20959;-66
2021/11/26 00:59:16;;;;;;;23.25;13.00;;;;;;;0.84;100.00;98990.92;1690120;83;21149;-65
2021/11/26 01:01:45;;;;;;;22.25;14.33;;;;;;;0.82;100.00;99001.19;1698323;83;20934;-66
2021/11/26 01:04:18;;;;;;;26.20;14.85;;;;;;;0.82;100.00;99001.19;1690162;83;20959;-65
2021/11/26 01:06:49;;;;;;;27.02;14.55;;;;;;;0.83;100.00;98991.45;1675763;84;20958;-65
2021/11/26 01:09:20;;;;;;;24.85;15.08;;;;;;;0.85;100.00;98988.49;1669075;84;21046;-65
2021/11/26 01:11:49;;;;;;;24.82;14.10;;;;;;;0.86;100.00;98988.22;1690078;83;21232;-66
2021/11/26 01:14:23;;;;;;;24.80;14.43;;;;;;;0.86;100.00;98977.95;1700732;83;21002;-66
2021/11/26 01:16:57;;;;;;;22.55;13.43;;;;;;;0.84;100.00;98976.06;1676890;84;20966;-66
2021/11/26 01:19:26;;;;;;;20.37;12.58;;;;;;;0.81;100.00;98967.94;1678699;84;20925;-66
2021/11/26 01:21:56;;;;;;;24.37;13.38;;;;;;;0.78;100.00;98959.55;1693862;83;21578;-66
2021/11/26 01:24:28;;;;;;;22.07;13.38;;;;;;;0.74;100.00;98953.06;1697901;83;21066;-66
2021/11/26 01:26:59;;;;;;;22.98;12.82;;;;;;;0.70;100.00;98951.97;1694511;84;21023;-66
2021/11/26 01:29:28;;;;;;;25.02;14.50;;;;;;;0.65;100.00;98971.13;1694554;84;21013;-66
2021/11/26 01:31:57;;;;;;;24.60;13.68;;;;;;;0.64;100.00;98957.89;1687432;83;21021;-66
2021/11/26 01:34:26;;;;;;;29.25;13.98;;;;;;;0.60;100.00;98958.96;1691697;83;21004;-66
2021/11/26 01:36:55;;;;;;;21.55;13.05;;;;;;;0.58;100.00;98959.77;1694876;84;21419;-66
2021/11/26 01:39:25;;;;;;;23.10;13.32;;;;;;;0.55;100.00;98961.67;1694526;83;20959;-66
2021/11/26 01:41:54;;;;;;;27.58;14.20;;;;;;;0.54;100.00;98960.58;1694569;84;20915;-66
2021/11/26 01:44:28;;;;;;;29.30;15.55;;;;;;;0.52;100.00;98955.98;1685621;83;21574;-67
2021/11/26 01:46:54;;;;;;;25.90;15.43;;;;;;;0.48;100.00;98959.75;1694541;83;21086;-68
2021/11/26 01:49:25;;;;;;;26.90;14.38;;;;;;;0.49;100.00;98967.31;1694819;84;21162;-67
2021/11/26 01:51:57;;;;;;;25.30;14.38;;;;;;;0.46;100.00;98953.80;1689134;83;21002;-67
2021/11/26 01:54:26;;;;;;;27.15;15.63;;;;;;;0.45;100.00;98952.72;1693719;83;20967;-66
2021/11/26 01:56:56;;;;;;;28.85;14.65;;;;;;;0.43;100.00;98958.92;1710007;83;20907;-66
2021/11/26 01:59:31;;;;;;;31.48;18.30;;;;;;;0.42;100.00;98958.11;1710481;84;20883;-66
2021/11/26 02:02:07;;;;;;;26.70;17.25;;;;;;;0.43;100.00;98958.38;1668483;84;20943;-65
2021/11/26 02:04:36;;;;;;;28.95;16.85;;;;;;;0.42;100.00;98956.75;1692920;83;20944;-66
2021/11/26 02:07:12;;;;;;;25.68;14.73;;;;;;;0.39;100.00;98957.28;1698046;83;20970;-66
2021/11/26 02:09:45;;;;;;;26.25;15.25;;;;;;;0.37;100.00;98956.73;1694264;83;20927;-66
2021/11/26 02:12:14;;;;;;;26.37;15.43;;;;;;;0.35;100.00;98958.88;1666947;84;20920;-66
2021/11/26 02:14:45;;;;;;;26.35;15.43;;;;;;;0.31;100.00;98955.89;1694752;83;21134;-66
2021/11/26 02:17:17;;;;;;;26.25;16.12;;;;;;;0.29;100.00;98946.44;1663418;84;20963;-66
2021/11/26 02:19:50;;;;;;;26.15;15.38;;;;;;;0.27;100.00;98944.00;1694071;83;20959;-65
2021/11/26 02:22:19;;;;;;;26.12;13.78;;;;;;;0.29;100.00;98941.84;1694628;83;20976;-66
2021/11/26 02:24:52;;;;;;;29.77;16.75;;;;;;;0.29;100.00;98936.45;1692249;83;20955;-66
2021/11/26 02:27:19;;;;;;;28.12;18.20;;;;;;;0.31;100.00;98934.84;1695085;84;22724;-67
2021/11/26 02:29:54;;;;;;;31.82;17.45;;;;;;;0.32;100.00;98933.76;1706665;83;20928;-67
2021/11/26 02:32:27;;;;;;;30.25;17.37;;;;;;;0.31;100.00;98943.75;1706626;83;20922;-67
2021/11/26 02:34:55;;;;;;;27.67;16.10;;;;;;;0.32;100.00;98941.86;1682786;83;20951;-68
2021/11/26 02:37:26;;;;;;;26.80;15.15;;;;;;;0.31;100.00;98938.89;1682485;85;20948;-68
2021/11/26 02:39:55;;;;;;;25.80;15.37;;;;;;;0.30;100.00;98938.07;1680995;84;21179;-68
2021/11/26 02:42:32;;;;;;;33.18;17.80;;;;;;;0.28;100.00;98936.17;1703661;84;20953;-67
2021/11/26 02:45:01;;;;;;;35.75;19.67;;;;;;;0.28;100.00;98934.02;1688563;83;20912;-67
2021/11/26 02:47:30;;;;;;;34.48;19.48;;;;;;;0.25;100.00;98940.75;1692966;83;20924;-67
2021/11/26 02:50:04;;;;;;;42.20;22.50;;;;;;;0.23;100.00;98939.39;1691796;83;21584;-67
2021/11/26 02:52:37;;;;;;;38.17;21.97;;;;;;;0.21;100.00;98929.39;1689963;83;21131;-67
2021/11/26 02:55:11;;;;;;;41.10;23.60;;;;;;;0.20;100.00;98932.63;1695006;83;20908;-66
2021/11/26 02:57:41;;;;;;;40.12;24.30;;;;;;;0.17;100.00;98934.50;1685955;83;20936;-67
2021/11/26 03:00:17;;;;;;;39.67;21.93;;;;;;;0.15;100.00;98931.25;1702572;83;21597;-65
2021/11/26 03:02:46;;;;;;;35.23;20.25;;;;;;;0.11;100.00;98938.78;1673223;85;20939;-65
2021/11/26 03:05:17;;;;;;;37.95;20.82;;;;;;;0.07;100.00;98927.70;1694887;83;21147;-65
2021/11/26 03:07:44;;;;;;;39.63;21.87;;;;;;;0.04;100.00;98930.11;1694542;83;20872;-66
2021/11/26 03:10:18;;;;;;;32.40;20.32;;;;;;;0.02;100.00;98927.67;1697511;83;21483;-65
2021/11/26 03:12:56;;;;;;;39.38;20.17;;;;;;;-0.01;100.00;98910.69;1677814;84;20924;-66
2021/11/26 03:15:30;;;;;;;40.30;20.68;;;;;;;-0.03;100.00;98915.53;1668705;84;21079;-66
2021/11/26 03:18:02;;;;;;;;;;;;;;;-0.05;100.00;98922.55;1669504;84;21083;-66
2021/11/26 03:20:29;;;;;;;;;;;;;;;-0.07;100.00;98930.09;1696572;83;20119;-65
2021/11/26 03:23:02;;;;;;;35.68;19.12;;;;;;;-0.07;100.00;98921.18;1690051;83;20131;-65
2021/11/26 03:25:34;;;;;;;35.83;20.45;;;;;;;-0.08;100.00;98922.25;1690790;83;21507;-66
2021/11/26 03:28:12;;;;;;;35.50;20.43;;;;;;;-0.08;100.00;98914.16;1667323;84;21518;-65
2021/11/26 03:30:40;;;;;;;30.35;18.35;;;;;;;-0.09;100.00;98912.00;1665985;85;21147;-65
2021/11/26 03:33:10;;;;;;;32.83;17.98;;;;;;;-0.11;100.00;98909.28;1694340;84;21570;-64
2021/11/26 03:35:48;;;;;;;35.58;19.42;;;;;;;-0.14;100.00;98912.50;1686702;83;21479;-65
2021/11/26 03:38:18;;;;;;;34.50;19.95;;;;;;;-0.17;100.00;98904.94;1665636;83;38373;-67
2021/11/26 03:40:50;;;;;;;34.80;17.10;;;;;;;-0.20;100.00;98904.91;1662084;84;21019;-64
2021/11/26 03:43:24;;;;;;;29.48;15.23;;;;;;;-0.25;100.00;98900.84;1688287;83;20929;-67
2021/11/26 03:45:50;;;;;;;29.82;16.17;;;;;;;-0.28;100.00;98902.70;1693458;83;21007;-65
2021/11/26 03:48:23;;;;;;;45.20;19.65;;;;;;;-0.30;100.00;98910.78;1670351;84;20951;-66
2021/11/26 03:50:56;;;;;;;39.10;20.08;;;;;;;-0.32;100.00;98904.84;1689876;83;21003;-66
2021/11/26 03:53:26;;;;;;;33.13;16.40;;;;;;;-0.35;100.00;98901.59;1704151;83;20996;-66
2021/11/26 03:55:59;;;;;;;37.00;19.45;;;;;;;-0.38;100.00;98899.41;1720668;82;21113;-66
2021/11/26 03:58:28;;;;;;;36.55;19.27;;;;;;;-0.40;100.00;98898.05;1706021;82;21533;-67
2021/11/26 04:00:56;;;;;;;36.10;18.42;;;;;;;-0.41;100.00;98904.51;1711262;82;20932;-68
2021/11/26 04:03:28;;;;;;;32.23;17.17;;;;;;;-0.45;100.00;98900.17;1725487;82;20994;-66
2021/11/26 04:05:59;;;;;;;45.98;20.15;;;;;;;-0.47;100.00;98894.77;1697845;82;20899;-66
2021/11/26 04:08:28;;;;;;;34.10;19.37;;;;;;;-0.49;100.00;98899.06;1682859;83;21003;-68
2021/11/26 04:11:02;;;;;;;36.10;19.27;;;;;;;-0.49;100.00;98903.64;1708985;83;20945;-67
2021/11/26 04:13:36;;;;;;;30.60;18.23;;;;;;;-0.49;100.00;98898.25;1708363;83;20959;-68
2021/11/26 04:16:12;;;;;;;30.25;16.55;;;;;;;-0.50;100.00;98894.74;1707567;83;20912;-67
2021/11/26 04:18:44;;;;;;;30.15;16.77;;;;;;;-0.51;100.00;98890.95;1709172;83;21023;-68
2021/11/26 04:21:17;;;;;;;33.13;17.05;;;;;;;-0.53;100.00;98893.09;1704541;82;20980;-67
2021/11/26 04:23:48;;;;;;;32.88;18.00;;;;;;;-0.54;100.00;98897.68;1707407;82;21033;-69
2021/11/26 04:26:23;;;;;;;36.73;16.95;;;;;;;-0.53;100.00;98895.80;1704895;83;21011;-68
2021/11/26 04:28:55;;;;;;;31.37;17.20;;;;;;;-0.54;100.00;98900.91;1689946;83;20948;-67
2021/11/26 04:31:25;;;;;;;28.07;15.80;;;;;;;-0.55;100.00;98901.98;1692705;84;20999;-68
2021/11/26 04:33:56;;;;;;;35.43;19.73;;;;;;;-0.53;100.00;98899.84;1691788;83;21154;-67
2021/11/26 04:36:25;;;;;;;32.20;19.83;;;;;;;-0.53;100.00;98893.09;1698843;83;21004;-67
2021/11/26 04:38:59;;;;;;;32.23;18.75;;;;;;;-0.51;100.00;98895.00;1683749;84;20959;-67
2021/11/26 04:41:32;;;;;;;33.58;16.20;;;;;;;-0.50;100.00;98892.58;1667077;84;20951;-68
2021/11/26 04:44:08;;;;;;;30.85;16.05;;;;;;;-0.49;100.00;98891.52;1690262;83;21467;-69
2021/11/26 04:46:37;;;;;;;29.25;16.17;;;;;;;-0.48;100.00;98891.79;1709086;81;21846;-68
2021/11/26 04:49:10;;;;;;;29.63;16.93;;;;;;;-0.47;100.00;98889.38;1719918;81;20939;-68
2021/11/26 04:51:41;;;;;;;27.87;16.90;;;;;;;-0.49;100.00;98885.59;1720050;81;21087;-66
2021/11/26 04:54:12;;;;;;;28.75;16.70;;;;;;;-0.48;100.00;98890.44;1713006;83;20959;-67
2021/11/26 04:56:42;;;;;;;26.00;16.48;;;;;;;-0.48;100.00;98887.75;1726612;81;20983;-68
2021/11/26 04:59:12;;;;;;;34.73;17.17;;;;;;;-0.49;100.00;98904.45;1721067;82;21148;-68
2021/11/26 05:01:45;;;;;;;28.45;15.83;;;;;;;-0.47;100.00;98910.41;1701270;83;21586;-68
2021/11/26 05:04:12;;;;;;;36.53;20.82;;;;;;;-0.47;100.00;98900.16;1725899;82;20872;-71
2021/11/26 05:06:46;;;;;;;40.58;22.58;;;;;;;-0.44;100.00;98895.59;1701729;83;21056;-66
2021/11/26 05:09:19;;;;;;;43.73;23.20;;;;;;;-0.43;100.00;98894.52;1705273;82;20950;-67
2021/11/26 05:11:46;;;;;;;32.93;16.63;;;;;;;-0.40;100.00;98890.77;1704498;83;21567;-67
2021/11/26 05:14:19;;;;;;;30.62;17.20;;;;;;;-0.41;100.00;98885.63;1708043;81;21006;-67
2021/11/26 05:16:46;;;;;;;27.05;14.45;;;;;;;-0.42;100.00;98874.03;1705948;81;21023;-67
2021/11/26 05:19:17;;;;;;;27.80;15.85;;;;;;;-0.43;100.00;98867.55;1708962;83;21439;-67
2021/11/26 05:21:48;;;;;;;26.15;13.90;;;;;;;-0.43;100.00;98875.64;1703041;81;20916;-67
2021/11/26 05:24:19;;;;;;;27.90;15.53;;;;;;;-0.44;100.00;98875.37;1701598;83;20904;-67
2021/11/26 05:26:57;;;;;;;32.58;14.40;;;;;;;-0.45;100.00;98875.09;1693607;83;20959;-67
2021/11/26 05:29:27;;;;;;;22.20;13.90;;;;;;;-0.46;100.00;98871.58;1690472;83;21023;-67
2021/11/26 05:31:59;;;;;;;28.38;14.60;;;;;;;-0.47;100.00;98875.89;1665968;83;20924;-68
2021/11/26 05:34:27;;;;;;;23.40;14.13;;;;;;;-0.47;100.00;98878.58;1691164;83;21435;-68
2021/11/26 05:36:57;;;;;;;31.02;14.83;;;;;;;-0.48;100.00;98875.61;1705680;83;21108;-68
2021/11/26 05:39:29;;;;;;;32.40;16.35;;;;;;;-0.49;100.00;98868.05;1700232;83;20912;-67
2021/11/26 05:41:59;;;;;;;29.67;15.30;;;;;;;-0.49;100.00;98869.94;1701417;83;20863;-67
2021/11/26 05:44:34;;;;;;;28.13;15.37;;;;;;;-0.49;100.00;98872.64;1694950;84;21471;-68
2021/11/26 05:47:07;;;;;;;29.75;16.55;;;;;;;-0.49;100.00;98877.49;1692730;83;20994;-67
2021/11/26 05:49:38;;;;;;;23.00;14.75;;;;;;;-0.47;100.00;98874.54;1694965;84;21821;-68
2021/11/26 05:52:10;;;;;;;27.22;16.65;;;;;;;-0.47;100.00;98869.14;1694853;84;21518;-68
2021/11/26 05:54:43;;;;;;;34.05;16.00;;;;;;;-0.48;100.00;98867.52;1695504;83;20908;-68
2021/11/26 05:57:11;;;;;;;25.25;13.75;;;;;;;-0.48;100.00;98876.95;1691540;83;21003;-69
2021/11/26 05:59:40;;;;;;;34.53;14.78;;;;;;;-0.47;100.00;98879.94;1662157;85;21055;-68
2021/11/26 06:02:07;;;;;;;33.85;12.80;;;;;;;-0.47;100.00;98874.00;1665730;86;21589;-69
2021/11/26 06:04:34;;;;;;;29.82;13.78;;;;;;;-0.44;100.00;98878.06;1666136;86;20916;-68
2021/11/26 06:07:06;;;;;;;38.90;14.58;;;;;;;-0.43;100.00;98890.47;1646805;85;20983;-68
2021/11/26 06:09:32;;;;;;;27.75;16.07;;;;;;;-0.41;100.00;98891.03;1672257;83;21482;-69
2021/11/26 06:12:03;;;;;;;29.87;16.05;;;;;;;-0.40;100.00;98898.86;1726341;82;21044;-68
2021/11/26 06:14:31;;;;;;;25.45;14.15;;;;;;;-0.36;100.00;98897.80;1714638;83;20943;-71
2021/11/26 06:17:09;;;;;;;27.35;14.70;;;;;;;-0.34;100.00;98901.05;1711301;83;20964;-69
2021/11/26 06:19:41;;;;;;;23.90;13.95;;;;;;;-0.31;100.00;98892.98;1720638;82;20879;-69
2021/11/26 06:22:17;;;;;;;28.47;15.68;;;;;;;-0.26;100.00;98911.89;1684551;82;20959;-68
2021/11/26 06:24:46;;;;;;;39.53;20.72;;;;;;;-0.22;100.00;98905.72;1695174;83;20896;-68
2021/11/26 06:27:18;;;;;;;29.95;17.95;;;;;;;-0.17;100.00;98896.84;1705797;81;21088;-69
2021/11/26 06:29:49;;;;;;;26.83;15.33;;;;;;;-0.13;100.00;98900.10;1698916;83;21423;-68
2021/11/26 06:32:19;;;;;;;26.60;14.65;;;;;;;-0.08;100.00;98896.08;1690702;83;21524;-69
2021/11/26 06:34:48;;;;;;;23.45;14.03;;;;;;;0.04;100.00;98882.88;1697781;83;21459;-72
2021/11/26 06:37:15;;;;;;;32.45;17.40;;;;;;;0.22;100.00;98887.28;1692623;83;20939;-73
2021/11/26 06:39:47;;;;;;;31.68;17.80;;;;;;;0.34;100.00;98883.01;1694651;84;21915;-67
2021/11/26 06:42:16;;;;;;;25.27;16.00;;;;;;;0.39;100.00;98882.22;1693710;84;20868;-72
2021/11/26 06:44:47;;;;;;;30.20;15.35;;;;;;;0.53;100.00;98880.09;1705717;83;21412;-74
2021/11/26 06:47:17;;;;;;;18.62;11.48;;;;;;;0.70;100.00;98879.02;1696752;83;20924;-69
2021/11/26 06:49:46;;;;;;;33.95;13.93;;;;;;;0.82;100.00;98875.00;1692614;84;21456;-71
2021/11/26 06:52:13;;;;;;;35.05;12.63;;;;;;;0.90;100.00;98866.90;1691800;83;21963;-69
2021/11/26 06:54:48;;;;;;;32.65;13.05;;;;;;;0.99;100.00;98873.39;1689114;84;20896;-69
2021/11/26 06:57:18;;;;;;;31.15;12.58;;;;;;;1.08;100.00;98878.53;1704618;83;20944;-69
2021/11/26 06:59:53;;;;;;;22.17;11.73;;;;;;;1.23;100.00;98865.53;1691602;83;20924;-69
2021/11/26 07:02:26;;;;;;;34.30;13.50;;;;;;;1.38;100.00;98854.70;1678995;85;21011;-72
2021/11/26 07:04:54;;;;;;;35.43;15.60;;;;;;;1.50;100.00;98867.94;1666700;84;21158;-68
2021/11/26 07:07:25;;;;;;;28.32;14.93;;;;;;;1.61;100.00;98869.01;1694636;83;20987;-70
2021/11/26 07:09:56;;;;;;;24.25;12.23;;;;;;;1.75;100.00;98871.11;1692546;83;20907;-69
2021/11/26 07:12:27;;;;;;;30.02;14.43;;;;;;;1.82;100.00;98877.05;1691670;83;21042;-70
2021/11/26 07:14:56;;;;;;;24.47;14.75;;;;;;;1.82;100.00;98883.82;1694042;84;20967;-68
2021/11/26 07:17:27;;;;;;;22.32;13.08;;;;;;;1.98;100.00;98884.86;1697706;83;21218;-69
2021/11/26 07:19:54;;;;;;;23.60;11.60;;;;;;;2.17;99.42;98883.71;1664863;84;21466;-69
2021/11/26 07:22:29;;;;;;;24.87;14.35;;;;;;;2.30;99.00;98874.99;1698432;83;20940;-69
2021/11/26 07:25:03;;;;;;;;;;;;;;;2.44;98.31;98872.46;1692725;84;20932;-70
2021/11/26 07:27:29;;;;;;;25.88;12.68;;;;;;;2.56;96.62;98866.70;1693903;84;20154;-69
2021/11/26 07:29:59;;;;;;;23.52;11.03;;;;;;;2.70;96.78;98866.36;1692226;83;21487;-66
2021/11/26 07:32:31;;;;;;;33.88;11.08;;;;;;;2.86;94.85;98854.33;1693668;83;20967;-67
2021/11/26 07:35:00;;;;;;;21.40;9.80;;;;;;;3.04;94.85;98855.52;1693789;83;20972;-68
2021/11/26 07:37:40;;;;;;;24.50;11.38;;;;;;;3.31;92.91;98855.84;1710402;82;21585;-68
2021/11/26 07:40:15;;;;;;;27.42;11.18;;;;;;;3.45;91.81;98857.34;1689510;83;20944;-68
2021/11/26 07:42:46;;;;;;;18.75;10.05;;;;;;;3.60;91.06;98859.08;1709127;81;21165;-69
2021/11/26 07:45:20;;;;;;;14.47;9.23;;;;;;;3.72;88.89;98862.22;1692736;83;20972;-69
2021/11/26 07:47:53;;;;;;;13.55;8.83;;;;;;;3.76;88.28;98872.76;1691905;83;21459;-69
2021/11/26 07:50:22;;;;;;;16.55;10.10;;;;;;;3.77;88.29;98875.73;1712392;81;20978;-71
2021/11/26 07:52:51;;;;;;;18.23;10.30;;;;;;;3.77;89.20;98873.57;1717961;83;20994;-71
2021/11/26 07:55:21;;;;;;;18.27;10.28;;;;;;;3.94;89.68;98874.73;1706592;82;21232;-72
2021/11/26 07:57:50;;;;;;;16.02;9.23;;;;;;;4.17;86.72;98881.79;1715291;83;21103;-71
2021/11/26 08:00:17;;;;;;;11.88;8.48;;;;;;;4.17;86.72;98881.79;1714222;83;20884;-72
2021/11/26 08:02:46;;;;;;;19.77;10.05;;;;;;;3.95;87.31;98890.48;1718742;83;21431;-68
2021/11/26 08:05:13;;;;;;;15.75;9.88;;;;;;;3.95;87.31;98890.48;1718911;83;21410;-66
2021/11/26 08:07:42;;;;;;;20.17;11.15;;;;;;;4.24;86.85;98901.27;1713987;83;21162;-68
2021/11/26 08:10:11;;;;;;;16.07;10.30;;;;;;;4.24;86.85;98901.27;1695631;83;20990;-69
2021/11/26 08:12:44;;;;;;;17.00;9.88;;;;;;;4.34;85.56;98903.87;1668487;84;21455;-68
2021/11/26 08:15:17;;;;;;;14.95;10.13;;;;;;;4.50;85.55;98898.50;1692474;83;20959;-66
2021/11/26 08:17:49;;;;;;;20.75;11.90;;;;;;;4.65;83.77;98880.61;1696449;83;21486;-68
2021/11/26 08:20:18;;;;;;;20.43;9.90;;;;;;;4.68;84.33;98875.69;1691000;83;22036;-69
2021/11/26 08:22:46;;;;;;;23.20;12.93;;;;;;;4.89;82.49;98881.09;1702485;83;21418;-69
2021/11/26 08:25:14;;;;;;;18.52;10.15;;;;;;;5.17;83.34;98876.04;1650920;85;21407;-69
2021/11/26 08:27:46;;;;;;;17.30;10.18;;;;;;;5.53;80.33;98863.17;1697147;83;20923;-69
2021/11/26 08:30:18;;;;;;;19.40;11.50;;;;;;;5.57;78.16;98865.55;1692606;83;20948;-69
2021/11/26 08:32:50;;;;;;;13.00;8.55;;;;;;;5.47;79.33;98865.73;1692393;83;20996;-70
2021/11/26 08:35:20;;;;;;;19.85;11.05;;;;;;;5.40;79.26;98870.20;1696954;83;21471;-69
2021/11/26 08:37:49;;;;;;;18.23;8.53;;;;;;;5.48;78.57;98863.27;1698120;81;20911;-68
2021/11/26 08:40:22;;;;;;;17.95;10.80;;;;;;;5.57;77.29;98851.94;1691539;83;20973;-68
2021/11/26 08:42:50;;;;;;;;;;;;;;;5.59;77.76;98857.34;1681928;83;20949;-69
2021/11/26 08:45:21;;;;;;;16.60;10.25;;;;;;;5.66;77.19;98850.14;1685770;85;21176;-69
2021/11/26 08:48:00;;;;;;;19.90;10.63;;;;;;;5.62;76.48;98851.30;1658983;86;20975;-68
2021/11/26 08:50:33;;;;;;;22.42;11.03;;;;;;;5.57;76.63;98851.39;1695149;83;21114;-68
2021/11/26 08:53:06;;;;;;;22.37;9.75;;;;;;;5.56;76.75;98848.97;1719692;82;21542;-69
2021/11/26 08:55:45;;;;;;;16.87;9.45;;;;;;;5.56;76.71;98843.52;1689651;82;21027;-69
2021/11/26 08:58:14;;;;;;;26.35;9.55;;;;;;;5.60;77.31;98830.37;1706155;83;21071;-71
2021/11/26 09:00:44;;;;;;;14.68;7.78;;;;;;;5.74;77.36;98832.30;1700025;81;21003;-69
2021/11/26 09:03:19;;;;;;;19.65;9.15;;;;;;;5.67;75.65;98828.61;1703723;83;21008;-67
2021/11/26 09:05:46;;;;;;;;;;;;;;;5.45;76.15;98810.78;1714588;82;20939;-67
2021/11/26 09:08:14;;;;;;;18.10;9.75;;;;;;;5.44;77.30;98809.16;1703490;82;20216;-68
2021/11/26 09:10:52;;;;;;;22.73;10.38;;;;;;;5.67;77.14;98804.66;1707443;83;21122;-68
2021/11/26 09:13:20;;;;;;;38.85;10.18;;;;;;;5.90;75.88;98796.30;1702279;83;21050;-73
2021/11/26 09:15:54;;;;;;;30.90;8.45;;;;;;;6.14;76.39;98787.91;1680852;83;20968;-68
2021/11/26 09:18:24;;;;;;;24.35;9.15;;;;;;;6.40;73.73;98790.87;1698527;83;21003;-67
2021/11/26 09:20:55;;;;;;;20.75;9.80;;;;;;;6.55;73.37;98780.18;1688684;83;20963;-69
2021/11/26 09:23:23;;;;;;;13.00;7.62;;;;;;;6.61;72.34;98768.84;1715333;83;23172;-68
2021/11/26 09:25:55;;;;;;;11.70;7.87;;;;;;;6.57;71.77;98786.13;1721568;82;21392;-69
2021/11/26 09:28:25;;;;;;;32.30;9.20;;;;;;;6.46;71.95;98774.65;1724144;82;20967;-70
2021/11/26 09:30:52;;;;;;;27.02;8.15;;;;;;;6.39;72.91;98768.00;1723665;81;20943;-69
2021/11/26 09:33:25;;;;;;;30.97;8.15;;;;;;;6.48;72.76;98760.70;1718221;81;21511;-69
2021/11/26 09:35:53;;;;;;;16.85;7.40;;;;;;;6.54;71.97;98754.02;1711254;84;21801;-69
2021/11/26 09:38:21;;;;;;;21.68;7.78;;;;;;;6.47;71.70;98759.09;1718549;83;21510;-69
2021/11/26 09:40:52;;;;;;;27.63;8.23;;;;;;;6.16;71.80;98738.55;1723419;83;20966;-70
2021/11/26 09:43:27;;;;;;;23.55;8.10;;;;;;;5.93;73.51;98737.13;1696603;83;20951;-69
2021/11/26 09:46:02;;;;;;;29.52;7.95;;;;;;;5.89;73.56;98744.29;1683167;83;20932;-69
2021/11/26 09:48:33;;;;;;;20.37;7.03;;;;;;;5.83;73.93;98743.30;1697719;84;21915;-71
2021/11/26 09:51:03;;;;;;;14.00;7.90;;;;;;;5.93;73.82;98744.49;1708478;82;20994;-70
2021/11/26 09:53:34;;;;;;;12.55;8.78;;;;;;;6.00;73.55;98744.89;1704692;83;21031;-70
2021/11/26 09:56:10;;;;;;;25.08;8.23;;;;;;;6.01;73.85;98743.77;1693388;84;21003;-70
2021/11/26 09:58:49;;;;;;;30.95;9.03;;;;;;;6.07;74.73;98739.02;1711859;82;21055;-70
2021/11/26 10:01:16;;;;;;;17.77;8.10;;;;;;;6.37;74.68;98730.14;1701843;83;21179;-71
2021/11/26 10:03:54;;;;;;;19.17;7.70;;;;;;;6.66;73.22;98719.39;1694769;84;20994;-68
2021/11/26 10:06:37;;;;;;;23.10;7.70;;;;;;;6.70;70.25;98713.00;1695659;84;21534;-68
2021/11/26 10:09:06;;;;;;;19.57;7.37;;;;;;;6.39;70.99;98712.92;1694805;84;21002;-68
2021/11/26 10:11:45;;;;;;;15.55;6.65;;;;;;;6.16;72.18;98716.20;1677337;84;21021;-68
2021/11/26 10:14:25;;;;;;;29.50;7.20;;;;;;;6.16;72.59;98712.11;1680559;83;20936;-69
2021/11/26 10:17:14;;;;;;;24.12;7.97;;;;;;;6.36;72.63;98704.55;1694411;84;21491;-68
2021/11/26 10:19:54;;;;;;;19.30;7.20;;;;;;;6.40;72.40;98697.37;1694769;84;20955;-69
2021/11/26 10:22:33;;;;;;;19.70;7.12;;;;;;;6.33;72.10;98693.73;1692118;83;21474;-69
2021/11/26 10:25:19;;;;;;;25.62;7.22;;;;;;;6.23;72.74;98695.33;1690790;84;21004;-68
2021/11/26 10:27:56;;;;;;;22.98;6.92;;;;;;;6.15;72.93;98700.16;1705207;84;21149;-68
2021/11/26 10:30:38;;;;;;;35.98;9.18;;;;;;;5.92;72.99;98703.38;1672225;84;20872;-68
2021/11/26 10:33:25;;;;;;;38.23;8.78;;;;;;;5.75;74.19;98698.55;1677790;84;21467;-67
2021/11/26 10:36:04;;;;;;;22.42;9.33;;;;;;;5.71;74.66;98707.64;1694803;84;21002;-68
2021/11/26 10:38:40;;;;;;;30.23;8.70;;;;;;;5.72;74.83;98692.91;1693740;83;20951;-68
2021/11/26 10:41:12;;;;;;;28.73;8.98;;;;;;;5.64;74.93;98693.06;1691287;84;21189;-68
2021/11/26 10:43:54;;;;;;;25.25;8.30;;;;;;;5.59;75.53;98685.00;1690438;83;21043;-68
2021/11/26 11:00:02;;;;;;;23.05;6.72;;;;;;;6.72;71.72;98658.14;1698050;83;21023;-68
2021/11/26 11:02:44;;;;;;;32.17;8.45;;;;;;;6.77;71.91;98662.11;1666766;83;21471;-69
2021/11/26 11:05:38;;;;;;;18.35;7.90;;;;;;;6.99;71.15;98661.23;1694856;83;20952;-68
2021/11/26 11:08:34;;;;;;;28.60;7.37;;;;;;;7.22;70.35;98663.59;1695294;83;21130;-69
2021/11/26 11:11:04;;;;;;;42.60;13.20;;;;;;;7.41;69.05;98652.98;1663293;84;20951;-68
2021/11/26 11:13:33;;;;;;;33.42;9.30;;;;;;;7.40;68.69;98648.65;1684002;83;21003;-68
2021/11/26 11:16:14;;;;;;;35.90;8.65;;;;;;;7.21;68.40;98656.53;1686455;83;20928;-68
2021/11/26 11:18:46;;;;;;;34.55;8.35;;;;;;;7.12;69.14;98661.14;1676606;83;21053;-68
2021/11/26 11:21:16;;;;;;;48.90;9.20;;;;;;;7.26;69.12;98676.06;1700165;83;23139;-68
2021/11/26 11:23:51;;;;;;;25.43;7.30;;;;;;;7.49;68.37;98673.50;1694636;84;20935;-69
2021/11/26 11:26:19;;;;;;;31.90;7.80;;;;;;;7.68;67.20;98656.01;1696819;84;20955;-69
2021/11/26 11:28:47;;;;;;;12.60;6.80;;;;;;;7.80;67.13;98663.03;1695382;83;20956;-69
2021/11/26 11:31:17;;;;;;;28.35;7.70;;;;;;;7.94;66.48;98652.77;1694713;84;20983;-69
2021/11/26 11:33:46;;;;;;;33.55;8.13;;;;;;;8.07;66.93;98651.02;1690620;83;26762;-69
2021/11/26 11:36:16;;;;;;;23.30;8.43;;;;;;;8.21;66.35;98646.16;1692613;83;20873;-69
2021/11/26 11:38:44;;;;;;;40.55;11.50;;;;;;;8.31;65.16;98635.47;1690993;83;20940;-69
2021/11/26 11:41:16;;;;;;;39.38;9.40;;;;;;;8.19;65.30;98630.08;1667142;84;20923;-69
2021/11/26 11:43:48;;;;;;;25.85;7.22;;;;;;;8.10;65.67;98624.38;1694171;83;21587;-70
2021/11/26 11:46:18;;;;;;;11.78;7.12;;;;;;;8.03;65.86;98628.18;1666554;84;21005;-69
2021/11/26 11:48:51;;;;;;;26.27;7.75;;;;;;;7.90;66.11;98623.91;1670283;83;20961;-69
2021/11/26 11:51:31;;;;;;;17.02;7.22;;;;;;;7.77;66.58;98612.56;1665591;84;20951;-69
2021/11/26 11:54:08;;;;;;;24.25;6.55;;;;;;;7.61;66.91;98610.84;1703285;83;20943;-69
2021/11/26 11:56:49;;;;;;;21.82;6.97;;;;;;;7.45;67.11;98601.52;1665366;83;20877;-69